sensor_id;sensor_type;location;lat;lon;timestamp;temperature;humidity
54431;DHT22;40342;52.998;5.862;2022-10-30T00:00:16;14.50;99.90
54431;DHT22;40342;52.998;5.862;2022-10-30T00:02:42;14.50;99.90
54431;DHT22;40342;52.998;5.862;2022-10-30T00:05:07;14.50;99.90
54431;DHT22;40342;52.998;5.862;2022-10-30T00:07:33;14.50;99.90
54431;DHT22;40342;52.998;5.862;2022-10-30T00:09:59;14.50;99.90
54431;DHT22;40342;52.998;5.862;2022-10-30T00:12:24;14.50;99.90
54431;DHT22;40342;52.998;5.862;2022-10-30T00:14:50;14.50;99.90
54431;DHT22;40342;52.998;5.862;2022-10-30T00:17:16;14.40;99.90
54431;DHT22;40342;52.998;5.862;2022-10-30T00:19:41;14.40;99.90
54431;DHT22;40342;52.998;5.862;2022-10-30T00:22:08;14.50;99.90
54431;DHT22;40342;52.998;5.862;2022-10-30T00:24:33;14.40;99.90
54431;DHT22;40342;52.998;5.862;2022-10-30T00:26:59;14.50;99.90
54431;DHT22;40342;52.998;5.862;2022-10-30T00:29:25;14.40;99.90
54431;DHT22;40342;52.998;5.862;2022-10-30T00:31:51;14.40;99.90
54431;DHT22;40342;52.998;5.862;2022-10-30T00:34:17;14.40;99.90
54431;DHT22;40342;52.998;5.862;2022-10-30T00:36:43;14.50;99.90
54431;DHT22;40342;52.998;5.862;2022-10-30T00:39:08;14.50;99.90
54431;DHT22;40342;52.998;5.862;2022-10-30T00:41:34;14.50;99.90
54431;DHT22;40342;52.998;5.862;2022-10-30T00:44:00;14.40;99.90
54431;DHT22;40342;52.998;5.862;2022-10-30T00:49:26;14.40;99.90
54431;DHT22;40342;52.998;5.862;2022-10-30T00:51:52;14.40;99.90
54431;DHT22;40342;52.998;5.862;2022-10-30T00:54:19;14.40;99.90
54431;DHT22;40342;52.998;5.862;2022-10-30T00:56:48;14.40;99.90
54431;DHT22;40342;52.998;5.862;2022-10-30T00:59:17;14.40;99.90
54431;DHT22;40342;52.998;5.862;2022-10-30T01:01:45;14.40;99.90
54431;DHT22;40342;52.998;5.862;2022-10-30T01:04:11;14.40;99.90
54431;DHT22;40342;52.998;5.862;2022-10-30T01:06:39;14.40;99.90
54431;DHT22;40342;52.998;5.862;2022-10-30T01:09:06;14.30;99.90
54431;DHT22;40342;52.998;5.862;2022-10-30T01:11:32;14.30;99.90
54431;DHT22;40342;52.998;5.862;2022-10-30T01:14:01;14.30;99.90
54431;DHT22;40342;52.998;5.862;2022-10-30T01:27:58;14.10;99.90
54431;DHT22;40342;52.998;5.862;2022-10-30T01:31:29;14.10;99.90
54431;DHT22;40342;52.998;5.862;2022-10-30T01:38:35;14.00;99.90
54431;DHT22;40342;52.998;5.862;2022-10-30T01:41:01;14.00;99.90
54431;DHT22;40342;52.998;5.862;2022-10-30T01:43:26;14.00;99.90
54431;DHT22;40342;52.998;5.862;2022-10-30T01:46:20;14.00;99.90
54431;DHT22;40342;52.998;5.862;2022-10-30T01:49:29;14.00;99.90
54431;DHT22;40342;52.998;5.862;2022-10-30T01:55:03;13.90;99.90
54431;DHT22;40342;52.998;5.862;2022-10-30T02:00:13;13.80;99.90
54431;DHT22;40342;52.998;5.862;2022-10-30T02:02:40;13.80;99.90
54431;DHT22;40342;52.998;5.862;2022-10-30T02:05:08;13.70;99.90
54431;DHT22;40342;52.998;5.862;2022-10-30T02:07:35;13.70;99.90
54431;DHT22;40342;52.998;5.862;2022-10-30T02:10:01;13.70;99.90
54431;DHT22;40342;52.998;5.862;2022-10-30T02:12:27;13.70;99.90
54431;DHT22;40342;52.998;5.862;2022-10-30T02:14:56;13.70;99.90
54431;DHT22;40342;52.998;5.862;2022-10-30T02:17:23;13.70;99.90
54431;DHT22;40342;52.998;5.862;2022-10-30T02:19:48;13.70;99.90
54431;DHT22;40342;52.998;5.862;2022-10-30T02:22:14;13.70;99.90
54431;DHT22;40342;52.998;5.862;2022-10-30T02:24:42;13.70;99.90
54431;DHT22;40342;52.998;5.862;2022-10-30T02:27:07;13.70;99.90
54431;DHT22;40342;52.998;5.862;2022-10-30T02:29:33;13.70;99.90
54431;DHT22;40342;52.998;5.862;2022-10-30T02:31:58;13.70;99.90
54431;DHT22;40342;52.998;5.862;2022-10-30T02:34:24;13.70;99.90
54431;DHT22;40342;52.998;5.862;2022-10-30T02:36:50;13.70;99.90
54431;DHT22;40342;52.998;5.862;2022-10-30T02:39:15;13.60;99.90
54431;DHT22;40342;52.998;5.862;2022-10-30T02:41:41;13.60;99.90
54431;DHT22;40342;52.998;5.862;2022-10-30T02:44:06;13.60;99.90
54431;DHT22;40342;52.998;5.862;2022-10-30T02:46:33;13.60;99.90
54431;DHT22;40342;52.998;5.862;2022-10-30T02:48:58;13.50;99.90
54431;DHT22;40342;52.998;5.862;2022-10-30T02:51:24;13.50;99.90
54431;DHT22;40342;52.998;5.862;2022-10-30T02:53:49;13.50;99.90
54431;DHT22;40342;52.998;5.862;2022-10-30T02:56:15;13.50;99.90
54431;DHT22;40342;52.998;5.862;2022-10-30T02:58:41;13.40;99.90
54431;DHT22;40342;52.998;5.862;2022-10-30T03:01:11;13.40;99.90
54431;DHT22;40342;52.998;5.862;2022-10-30T03:03:37;13.40;99.90
54431;DHT22;40342;52.998;5.862;2022-10-30T03:06:06;13.40;99.90
54431;DHT22;40342;52.998;5.862;2022-10-30T03:08:32;13.40;99.90
54431;DHT22;40342;52.998;5.862;2022-10-30T03:10:59;13.40;99.90
54431;DHT22;40342;52.998;5.862;2022-10-30T03:13:27;13.40;99.90
54431;DHT22;40342;52.998;5.862;2022-10-30T03:18:26;13.30;99.90
54431;DHT22;40342;52.998;5.862;2022-10-30T03:20:56;13.30;99.90
54431;DHT22;40342;52.998;5.862;2022-10-30T03:23:22;13.30;99.90
54431;DHT22;40342;52.998;5.862;2022-10-30T03:25:51;13.30;99.90
54431;DHT22;40342;52.998;5.862;2022-10-30T03:28:16;13.30;99.90
54431;DHT22;40342;52.998;5.862;2022-10-30T03:30:42;13.30;99.90
54431;DHT22;40342;52.998;5.862;2022-10-30T03:33:07;13.20;99.90
54431;DHT22;40342;52.998;5.862;2022-10-30T03:35:35;13.30;99.90
54431;DHT22;40342;52.998;5.862;2022-10-30T03:38:00;13.20;99.90
54431;DHT22;40342;52.998;5.862;2022-10-30T03:40:26;13.30;99.90
54431;DHT22;40342;52.998;5.862;2022-10-30T03:42:51;13.30;99.90
54431;DHT22;40342;52.998;5.862;2022-10-30T03:45:17;13.20;99.90
54431;DHT22;40342;52.998;5.862;2022-10-30T03:47:42;13.30;99.90
54431;DHT22;40342;52.998;5.862;2022-10-30T03:50:08;13.30;99.90
54431;DHT22;40342;52.998;5.862;2022-10-30T03:52:34;13.30;99.90
54431;DHT22;40342;52.998;5.862;2022-10-30T03:54:59;13.30;99.90
54431;DHT22;40342;52.998;5.862;2022-10-30T03:57:25;13.30;99.90
54431;DHT22;40342;52.998;5.862;2022-10-30T03:59:50;13.30;99.90
54431;DHT22;40342;52.998;5.862;2022-10-30T04:02:16;13.20;99.90
54431;DHT22;40342;52.998;5.862;2022-10-30T04:04:41;13.20;99.90
54431;DHT22;40342;52.998;5.862;2022-10-30T04:07:07;13.20;99.90
54431;DHT22;40342;52.998;5.862;2022-10-30T04:09:33;13.20;99.90
54431;DHT22;40342;52.998;5.862;2022-10-30T04:11:58;13.20;99.90
54431;DHT22;40342;52.998;5.862;2022-10-30T04:14:24;13.20;99.90
54431;DHT22;40342;52.998;5.862;2022-10-30T04:16:49;13.20;99.90
54431;DHT22;40342;52.998;5.862;2022-10-30T04:19:15;13.20;99.90
54431;DHT22;40342;52.998;5.862;2022-10-30T04:21:40;13.10;99.90
54431;DHT22;40342;52.998;5.862;2022-10-30T04:24:08;13.10;99.90
54431;DHT22;40342;52.998;5.862;2022-10-30T04:26:34;13.10;99.90
54431;DHT22;40342;52.998;5.862;2022-10-30T04:28:59;13.10;99.90
54431;DHT22;40342;52.998;5.862;2022-10-30T04:31:25;13.10;99.90
54431;DHT22;40342;52.998;5.862;2022-10-30T04:33:51;13.10;99.90
54431;DHT22;40342;52.998;5.862;2022-10-30T04:36:16;13.10;99.90
54431;DHT22;40342;52.998;5.862;2022-10-30T04:38:42;13.10;99.90
54431;DHT22;40342;52.998;5.862;2022-10-30T04:41:08;13.00;99.90
54431;DHT22;40342;52.998;5.862;2022-10-30T04:43:34;13.00;99.90
54431;DHT22;40342;52.998;5.862;2022-10-30T04:46:03;13.00;99.90
54431;DHT22;40342;52.998;5.862;2022-10-30T04:48:29;13.00;99.90
54431;DHT22;40342;52.998;5.862;2022-10-30T04:50:57;13.00;99.90
54431;DHT22;40342;52.998;5.862;2022-10-30T04:53:23;13.00;99.90
54431;DHT22;40342;52.998;5.862;2022-10-30T04:55:52;12.90;99.90
54431;DHT22;40342;52.998;5.862;2022-10-30T04:58:19;12.90;99.90
54431;DHT22;40342;52.998;5.862;2022-10-30T05:00:45;12.90;99.90
54431;DHT22;40342;52.998;5.862;2022-10-30T05:03:18;12.90;99.90
54431;DHT22;40342;52.998;5.862;2022-10-30T05:05:44;12.90;99.90
54431;DHT22;40342;52.998;5.862;2022-10-30T05:08:10;12.90;99.90
54431;DHT22;40342;52.998;5.862;2022-10-30T05:10:38;12.90;99.90
54431;DHT22;40342;52.998;5.862;2022-10-30T05:13:04;12.90;99.90
54431;DHT22;40342;52.998;5.862;2022-10-30T05:15:30;12.80;99.90
54431;DHT22;40342;52.998;5.862;2022-10-30T05:17:55;12.80;99.90
54431;DHT22;40342;52.998;5.862;2022-10-30T05:20:21;12.80;99.90
54431;DHT22;40342;52.998;5.862;2022-10-30T05:22:57;12.70;99.90
54431;DHT22;40342;52.998;5.862;2022-10-30T05:25:24;12.70;99.90
54431;DHT22;40342;52.998;5.862;2022-10-30T05:27:50;12.70;99.90
54431;DHT22;40342;52.998;5.862;2022-10-30T05:30:15;12.70;99.90
54431;DHT22;40342;52.998;5.862;2022-10-30T05:32:41;12.60;99.90
54431;DHT22;40342;52.998;5.862;2022-10-30T05:35:07;12.60;99.90
54431;DHT22;40342;52.998;5.862;2022-10-30T05:37:33;12.60;99.90
54431;DHT22;40342;52.998;5.862;2022-10-30T05:39:58;12.60;99.90
54431;DHT22;40342;52.998;5.862;2022-10-30T05:42:24;12.60;99.90
54431;DHT22;40342;52.998;5.862;2022-10-30T05:44:49;12.60;99.90
54431;DHT22;40342;52.998;5.862;2022-10-30T05:47:15;12.70;99.90
54431;DHT22;40342;52.998;5.862;2022-10-30T05:49:40;12.70;99.90
54431;DHT22;40342;52.998;5.862;2022-10-30T05:52:06;12.70;99.90
54431;DHT22;40342;52.998;5.862;2022-10-30T05:54:32;12.70;99.90
54431;DHT22;40342;52.998;5.862;2022-10-30T05:56:57;12.70;99.90
54431;DHT22;40342;52.998;5.862;2022-10-30T05:59:23;12.70;99.90
54431;DHT22;40342;52.998;5.862;2022-10-30T06:01:48;12.70;99.90
54431;DHT22;40342;52.998;5.862;2022-10-30T06:04:14;12.60;99.90
54431;DHT22;40342;52.998;5.862;2022-10-30T06:06:40;12.60;99.90
54431;DHT22;40342;52.998;5.862;2022-10-30T06:09:05;12.60;99.90
54431;DHT22;40342;52.998;5.862;2022-10-30T06:11:31;12.60;99.90
54431;DHT22;40342;52.998;5.862;2022-10-30T06:13:56;12.60;99.90
54431;DHT22;40342;52.998;5.862;2022-10-30T06:16:22;12.60;99.90
54431;DHT22;40342;52.998;5.862;2022-10-30T06:18:48;12.60;99.90
54431;DHT22;40342;52.998;5.862;2022-10-30T06:21:13;12.60;99.90
54431;DHT22;40342;52.998;5.862;2022-10-30T06:23:39;12.60;99.90
54431;DHT22;40342;52.998;5.862;2022-10-30T06:26:04;12.60;99.90
54431;DHT22;40342;52.998;5.862;2022-10-30T06:28:30;12.60;99.90
54431;DHT22;40342;52.998;5.862;2022-10-30T06:30:55;12.70;99.90
54431;DHT22;40342;52.998;5.862;2022-10-30T06:33:21;12.60;99.90
54431;DHT22;40342;52.998;5.862;2022-10-30T06:35:48;12.60;99.90
54431;DHT22;40342;52.998;5.862;2022-10-30T06:38:13;12.50;99.90
54431;DHT22;40342;52.998;5.862;2022-10-30T06:40:40;12.60;99.90
54431;DHT22;40342;52.998;5.862;2022-10-30T06:43:06;12.50;99.90
54431;DHT22;40342;52.998;5.862;2022-10-30T06:45:31;12.50;99.90
54431;DHT22;40342;52.998;5.862;2022-10-30T06:47:59;12.50;99.90
54431;DHT22;40342;52.998;5.862;2022-10-30T06:50:26;12.60;99.90
54431;DHT22;40342;52.998;5.862;2022-10-30T06:52:52;12.50;99.90
54431;DHT22;40342;52.998;5.862;2022-10-30T06:55:19;12.50;99.90
54431;DHT22;40342;52.998;5.862;2022-10-30T06:57:45;12.50;99.90
54431;DHT22;40342;52.998;5.862;2022-10-30T07:00:13;12.50;99.90
54431;DHT22;40342;52.998;5.862;2022-10-30T07:02:39;12.50;99.90
54431;DHT22;40342;52.998;5.862;2022-10-30T07:05:05;12.50;99.90
54431;DHT22;40342;52.998;5.862;2022-10-30T07:07:30;12.40;99.90
54431;DHT22;40342;52.998;5.862;2022-10-30T07:09:56;12.50;99.90
54431;DHT22;40342;52.998;5.862;2022-10-30T07:12:22;12.50;99.90
54431;DHT22;40342;52.998;5.862;2022-10-30T07:14:47;12.50;99.90
54431;DHT22;40342;52.998;5.862;2022-10-30T07:17:13;12.50;99.90
54431;DHT22;40342;52.998;5.862;2022-10-30T07:19:38;12.50;99.90
54431;DHT22;40342;52.998;5.862;2022-10-30T07:22:04;12.50;99.90
54431;DHT22;40342;52.998;5.862;2022-10-30T07:24:29;12.60;99.90
54431;DHT22;40342;52.998;5.862;2022-10-30T07:26:55;12.60;99.90
54431;DHT22;40342;52.998;5.862;2022-10-30T07:29:21;12.60;99.90
54431;DHT22;40342;52.998;5.862;2022-10-30T07:31:46;12.70;99.90
54431;DHT22;40342;52.998;5.862;2022-10-30T07:34:14;12.70;99.90
54431;DHT22;40342;52.998;5.862;2022-10-30T07:36:39;12.70;99.90
54431;DHT22;40342;52.998;5.862;2022-10-30T07:39:05;12.70;99.90
54431;DHT22;40342;52.998;5.862;2022-10-30T07:41:30;12.70;99.90
54431;DHT22;40342;52.998;5.862;2022-10-30T07:43:56;12.70;99.90
54431;DHT22;40342;52.998;5.862;2022-10-30T07:46:22;12.80;99.90
54431;DHT22;40342;52.998;5.862;2022-10-30T07:48:47;12.80;99.90
54431;DHT22;40342;52.998;5.862;2022-10-30T07:51:13;12.80;99.90
54431;DHT22;40342;52.998;5.862;2022-10-30T07:53:39;12.80;99.90
54431;DHT22;40342;52.998;5.862;2022-10-30T07:56:05;12.80;99.90
54431;DHT22;40342;52.998;5.862;2022-10-30T07:58:31;12.80;99.90
54431;DHT22;40342;52.998;5.862;2022-10-30T08:00:56;12.90;99.90
54431;DHT22;40342;52.998;5.862;2022-10-30T08:03:22;12.90;99.90
54431;DHT22;40342;52.998;5.862;2022-10-30T08:05:48;12.90;99.90
54431;DHT22;40342;52.998;5.862;2022-10-30T08:08:13;13.00;99.90
54431;DHT22;40342;52.998;5.862;2022-10-30T08:10:39;13.00;99.90
54431;DHT22;40342;52.998;5.862;2022-10-30T08:13:04;13.00;99.90
54431;DHT22;40342;52.998;5.862;2022-10-30T08:15:30;13.10;99.90
54431;DHT22;40342;52.998;5.862;2022-10-30T08:17:57;13.10;99.90
54431;DHT22;40342;52.998;5.862;2022-10-30T08:20:23;13.10;99.90
54431;DHT22;40342;52.998;5.862;2022-10-30T08:22:51;13.20;99.90
54431;DHT22;40342;52.998;5.862;2022-10-30T08:25:19;13.20;99.90
54431;DHT22;40342;52.998;5.862;2022-10-30T08:27:56;13.30;99.90
54431;DHT22;40342;52.998;5.862;2022-10-30T08:30:24;13.30;99.90
54431;DHT22;40342;52.998;5.862;2022-10-30T08:32:49;13.40;99.90
54431;DHT22;40342;52.998;5.862;2022-10-30T08:35:15;13.40;99.90
54431;DHT22;40342;52.998;5.862;2022-10-30T08:37:41;13.50;99.90
54431;DHT22;40342;52.998;5.862;2022-10-30T08:40:08;13.50;99.90
54431;DHT22;40342;52.998;5.862;2022-10-30T08:42:34;13.50;99.90
54431;DHT22;40342;52.998;5.862;2022-10-30T08:45:00;13.60;99.90
54431;DHT22;40342;52.998;5.862;2022-10-30T08:47:25;13.60;99.90
54431;DHT22;40342;52.998;5.862;2022-10-30T08:49:51;13.70;99.90
54431;DHT22;40342;52.998;5.862;2022-10-30T08:52:16;13.70;99.90
54431;DHT22;40342;52.998;5.862;2022-10-30T08:54:42;13.80;99.90
54431;DHT22;40342;52.998;5.862;2022-10-30T08:57:08;13.90;99.90
54431;DHT22;40342;52.998;5.862;2022-10-30T08:59:33;14.00;99.90
54431;DHT22;40342;52.998;5.862;2022-10-30T09:01:59;14.00;99.90
54431;DHT22;40342;52.998;5.862;2022-10-30T09:04:24;14.00;99.90
54431;DHT22;40342;52.998;5.862;2022-10-30T09:06:50;14.20;99.90
54431;DHT22;40342;52.998;5.862;2022-10-30T09:09:15;14.20;99.90
54431;DHT22;40342;52.998;5.862;2022-10-30T09:11:41;14.30;99.90
54431;DHT22;40342;52.998;5.862;2022-10-30T09:14:06;14.40;99.90
54431;DHT22;40342;52.998;5.862;2022-10-30T09:16:32;14.40;99.90
54431;DHT22;40342;52.998;5.862;2022-10-30T09:18:57;14.50;99.90
54431;DHT22;40342;52.998;5.862;2022-10-30T09:21:23;14.60;99.90
54431;DHT22;40342;52.998;5.862;2022-10-30T09:23:48;14.80;99.90
54431;DHT22;40342;52.998;5.862;2022-10-30T09:26:14;15.00;99.90
54431;DHT22;40342;52.998;5.862;2022-10-30T09:28:39;15.20;99.90
54431;DHT22;40342;52.998;5.862;2022-10-30T09:31:05;15.50;99.90
54431;DHT22;40342;52.998;5.862;2022-10-30T09:33:31;15.70;99.90
54431;DHT22;40342;52.998;5.862;2022-10-30T09:35:56;16.00;99.90
54431;DHT22;40342;52.998;5.862;2022-10-30T09:38:22;16.20;99.90
54431;DHT22;40342;52.998;5.862;2022-10-30T09:41:19;16.30;99.90
54431;DHT22;40342;52.998;5.862;2022-10-30T09:44:08;16.50;99.90
54431;DHT22;40342;52.998;5.862;2022-10-30T09:49:25;16.90;99.90
54431;DHT22;40342;52.998;5.862;2022-10-30T09:52:12;17.10;99.90
54431;DHT22;40342;52.998;5.862;2022-10-30T09:54:56;17.30;99.90
54431;DHT22;40342;52.998;5.862;2022-10-30T09:57:38;17.50;99.90
54431;DHT22;40342;52.998;5.862;2022-10-30T10:00:09;17.70;99.90
54431;DHT22;40342;52.998;5.862;2022-10-30T10:02:50;17.80;99.90
54431;DHT22;40342;52.998;5.862;2022-10-30T10:05:33;17.90;99.90
54431;DHT22;40342;52.998;5.862;2022-10-30T10:08:07;18.10;99.90
54431;DHT22;40342;52.998;5.862;2022-10-30T10:10:43;18.20;99.90
54431;DHT22;40342;52.998;5.862;2022-10-30T10:15:46;18.40;99.90
54431;DHT22;40342;52.998;5.862;2022-10-30T10:18:32;18.40;99.90
54431;DHT22;40342;52.998;5.862;2022-10-30T10:23:49;18.50;99.90
54431;DHT22;40342;52.998;5.862;2022-10-30T10:26:28;18.60;99.90
54431;DHT22;40342;52.998;5.862;2022-10-30T10:29:04;18.60;99.90
54431;DHT22;40342;52.998;5.862;2022-10-30T10:32:18;18.70;99.90
54431;DHT22;40342;52.998;5.862;2022-10-30T10:37:53;18.70;99.90
54431;DHT22;40342;52.998;5.862;2022-10-30T10:40:51;18.70;99.90
54431;DHT22;40342;52.998;5.862;2022-10-30T10:43:24;18.70;99.90
54431;DHT22;40342;52.998;5.862;2022-10-30T10:45:58;18.70;99.90
54431;DHT22;40342;52.998;5.862;2022-10-30T10:48:40;18.70;99.90
54431;DHT22;40342;52.998;5.862;2022-10-30T10:56:08;18.70;99.90
54431;DHT22;40342;52.998;5.862;2022-10-30T11:01:17;18.80;99.90
54431;DHT22;40342;52.998;5.862;2022-10-30T11:03:55;18.80;99.90
54431;DHT22;40342;52.998;5.862;2022-10-30T11:06:27;18.90;99.90
54431;DHT22;40342;52.998;5.862;2022-10-30T11:09:15;18.90;99.90
54431;DHT22;40342;52.998;5.862;2022-10-30T11:11:46;19.00;99.90
54431;DHT22;40342;52.998;5.862;2022-10-30T11:14:16;19.00;99.90
54431;DHT22;40342;52.998;5.862;2022-10-30T11:19:13;19.10;99.90
54431;DHT22;40342;52.998;5.862;2022-10-30T11:21:43;19.20;99.90
54431;DHT22;40342;52.998;5.862;2022-10-30T11:24:30;19.20;99.90
54431;DHT22;40342;52.998;5.862;2022-10-30T11:27:42;19.20;99.90
54431;DHT22;40342;52.998;5.862;2022-10-30T11:29:58;19.20;99.90
54431;DHT22;40342;52.998;5.862;2022-10-30T11:32:29;19.30;99.90
54431;DHT22;40342;52.998;5.862;2022-10-30T11:35:12;19.40;99.90
54431;DHT22;40342;52.998;5.862;2022-10-30T11:37:40;19.50;99.90
54431;DHT22;40342;52.998;5.862;2022-10-30T11:40:22;19.60;99.90
54431;DHT22;40342;52.998;5.862;2022-10-30T11:42:59;19.70;99.90
54431;DHT22;40342;52.998;5.862;2022-10-30T11:45:35;19.80;99.90
54431;DHT22;40342;52.998;5.862;2022-10-30T11:48:09;19.80;99.90
54431;DHT22;40342;52.998;5.862;2022-10-30T11:50:35;19.80;99.90
54431;DHT22;40342;52.998;5.862;2022-10-30T11:53:20;19.90;99.90
54431;DHT22;40342;52.998;5.862;2022-10-30T11:55:47;19.90;99.90
54431;DHT22;40342;52.998;5.862;2022-10-30T11:58:32;19.90;99.90
54431;DHT22;40342;52.998;5.862;2022-10-30T12:01:13;20.00;99.90
54431;DHT22;40342;52.998;5.862;2022-10-30T12:03:41;20.00;99.90
54431;DHT22;40342;52.998;5.862;2022-10-30T12:06:26;20.10;99.90
54431;DHT22;40342;52.998;5.862;2022-10-30T12:09:00;20.10;99.90
54431;DHT22;40342;52.998;5.862;2022-10-30T12:11:34;20.20;99.90
54431;DHT22;40342;52.998;5.862;2022-10-30T12:13:59;20.20;99.90
54431;DHT22;40342;52.998;5.862;2022-10-30T12:16:26;20.20;99.90
54431;DHT22;40342;52.998;5.862;2022-10-30T12:19:02;20.20;99.90
54431;DHT22;40342;52.998;5.862;2022-10-30T12:21:33;20.10;99.90
54431;DHT22;40342;52.998;5.862;2022-10-30T12:24:02;20.10;99.90
54431;DHT22;40342;52.998;5.862;2022-10-30T12:26:33;20.20;99.90
54431;DHT22;40342;52.998;5.862;2022-10-30T12:29:01;20.20;99.90
54431;DHT22;40342;52.998;5.862;2022-10-30T12:31:45;20.20;99.90
54431;DHT22;40342;52.998;5.862;2022-10-30T12:37:26;20.20;99.90
54431;DHT22;40342;52.998;5.862;2022-10-30T12:42:34;20.10;99.90
54431;DHT22;40342;52.998;5.862;2022-10-30T12:45:14;20.10;99.90
54431;DHT22;40342;52.998;5.862;2022-10-30T12:56:04;20.30;99.90
54431;DHT22;40342;52.998;5.862;2022-10-30T13:01:26;20.30;99.90
54431;DHT22;40342;52.998;5.862;2022-10-30T13:03:59;20.30;99.90
54431;DHT22;40342;52.998;5.862;2022-10-30T13:06:31;20.30;99.90
54431;DHT22;40342;52.998;5.862;2022-10-30T13:11:47;20.20;99.90
54431;DHT22;40342;52.998;5.862;2022-10-30T13:14:39;20.10;99.90
54431;DHT22;40342;52.998;5.862;2022-10-30T13:17:11;20.00;99.90
54431;DHT22;40342;52.998;5.862;2022-10-30T13:19:39;19.90;99.90
54431;DHT22;40342;52.998;5.862;2022-10-30T13:22:36;19.80;99.90
54431;DHT22;40342;52.998;5.862;2022-10-30T13:25:21;19.70;99.90
54431;DHT22;40342;52.998;5.862;2022-10-30T13:27:57;19.60;99.90
54431;DHT22;40342;52.998;5.862;2022-10-30T13:30:29;19.50;99.90
54431;DHT22;40342;52.998;5.862;2022-10-30T13:33:13;19.60;99.90
54431;DHT22;40342;52.998;5.862;2022-10-30T13:36:02;19.50;99.90
54431;DHT22;40342;52.998;5.862;2022-10-30T13:45:21;19.40;99.90
54431;DHT22;40342;52.998;5.862;2022-10-30T13:48:10;19.40;99.90
54431;DHT22;40342;52.998;5.862;2022-10-30T13:53:42;19.40;99.90
54431;DHT22;40342;52.998;5.862;2022-10-30T13:56:13;19.40;99.90
54431;DHT22;40342;52.998;5.862;2022-10-30T14:01:37;19.40;99.90
54431;DHT22;40342;52.998;5.862;2022-10-30T14:06:56;19.40;99.90
54431;DHT22;40342;52.998;5.862;2022-10-30T14:09:45;19.40;99.90
54431;DHT22;40342;52.998;5.862;2022-10-30T14:12:49;19.40;99.90
54431;DHT22;40342;52.998;5.862;2022-10-30T14:15:32;19.40;99.90
54431;DHT22;40342;52.998;5.862;2022-10-30T14:28:32;19.20;99.90
54431;DHT22;40342;52.998;5.862;2022-10-30T14:31:02;19.20;99.90
54431;DHT22;40342;52.998;5.862;2022-10-30T14:33:36;19.20;99.90
54431;DHT22;40342;52.998;5.862;2022-10-30T14:39:23;19.10;99.90
54431;DHT22;40342;52.998;5.862;2022-10-30T14:44:57;19.10;99.90
54431;DHT22;40342;52.998;5.862;2022-10-30T14:47:49;19.00;99.90
54431;DHT22;40342;52.998;5.862;2022-10-30T14:58:39;18.90;99.90
54431;DHT22;40342;52.998;5.862;2022-10-30T15:06:29;19.10;99.90
54431;DHT22;40342;52.998;5.862;2022-10-30T15:14:30;19.20;99.90
54431;DHT22;40342;52.998;5.862;2022-10-30T15:16:57;19.10;99.90
54431;DHT22;40342;52.998;5.862;2022-10-30T15:19:27;19.10;99.90
54431;DHT22;40342;52.998;5.862;2022-10-30T15:21:54;19.00;99.90
54431;DHT22;40342;52.998;5.862;2022-10-30T15:24:23;19.00;99.90
54431;DHT22;40342;52.998;5.862;2022-10-30T15:26:54;18.90;99.90
54431;DHT22;40342;52.998;5.862;2022-10-30T15:29:24;18.80;99.90
54431;DHT22;40342;52.998;5.862;2022-10-30T15:31:56;18.80;99.90
54431;DHT22;40342;52.998;5.862;2022-10-30T15:34:22;18.70;99.90
54431;DHT22;40342;52.998;5.862;2022-10-30T15:36:49;18.70;99.90
54431;DHT22;40342;52.998;5.862;2022-10-30T15:39:16;18.60;99.90
54431;DHT22;40342;52.998;5.862;2022-10-30T15:41:47;18.60;99.90
54431;DHT22;40342;52.998;5.862;2022-10-30T15:44:22;18.60;99.90
54431;DHT22;40342;52.998;5.862;2022-10-30T15:46:51;18.50;99.90
54431;DHT22;40342;52.998;5.862;2022-10-30T15:49:37;18.40;99.90
54431;DHT22;40342;52.998;5.862;2022-10-30T15:52:27;18.40;99.90
54431;DHT22;40342;52.998;5.862;2022-10-30T15:55:00;18.30;99.90
54431;DHT22;40342;52.998;5.862;2022-10-30T15:57:34;18.20;99.90
54431;DHT22;40342;52.998;5.862;2022-10-30T16:00:04;18.10;99.90
54431;DHT22;40342;52.998;5.862;2022-10-30T16:02:32;18.00;99.90
54431;DHT22;40342;52.998;5.862;2022-10-30T16:04:58;18.00;99.90
54431;DHT22;40342;52.998;5.862;2022-10-30T16:07:26;17.90;99.90
54431;DHT22;40342;52.998;5.862;2022-10-30T16:09:55;17.90;99.90
54431;DHT22;40342;52.998;5.862;2022-10-30T16:12:31;17.80;99.90
54431;DHT22;40342;52.998;5.862;2022-10-30T16:15:01;17.80;99.90
54431;DHT22;40342;52.998;5.862;2022-10-30T16:17:28;17.70;99.90
54431;DHT22;40342;52.998;5.862;2022-10-30T16:19:57;17.60;99.90
54431;DHT22;40342;52.998;5.862;2022-10-30T16:22:32;17.50;99.90
54431;DHT22;40342;52.998;5.862;2022-10-30T16:24:59;17.50;99.90
54431;DHT22;40342;52.998;5.862;2022-10-30T16:27:25;17.50;99.90
54431;DHT22;40342;52.998;5.862;2022-10-30T16:29:56;17.40;99.90
54431;DHT22;40342;52.998;5.862;2022-10-30T16:32:28;17.30;99.90
54431;DHT22;40342;52.998;5.862;2022-10-30T16:34:56;17.30;99.90
54431;DHT22;40342;52.998;5.862;2022-10-30T16:37:27;17.20;99.90
54431;DHT22;40342;52.998;5.862;2022-10-30T16:39:58;17.10;99.90
54431;DHT22;40342;52.998;5.862;2022-10-30T16:42:26;17.00;99.90
54431;DHT22;40342;52.998;5.862;2022-10-30T16:47:48;16.90;99.90
54431;DHT22;40342;52.998;5.862;2022-10-30T16:50:16;16.80;99.90
54431;DHT22;40342;52.998;5.862;2022-10-30T16:52:42;16.80;99.90
54431;DHT22;40342;52.998;5.862;2022-10-30T16:55:13;16.70;99.90
54431;DHT22;40342;52.998;5.862;2022-10-30T16:57:44;16.70;99.90
54431;DHT22;40342;52.998;5.862;2022-10-30T17:00:22;16.60;99.90
54431;DHT22;40342;52.998;5.862;2022-10-30T17:02:50;16.60;99.90
54431;DHT22;40342;52.998;5.862;2022-10-30T17:05:31;16.60;99.90
54431;DHT22;40342;52.998;5.862;2022-10-30T17:08:28;16.50;99.90
54431;DHT22;40342;52.998;5.862;2022-10-30T17:11:01;16.50;99.90
54431;DHT22;40342;52.998;5.862;2022-10-30T17:16:26;16.50;99.90
54431;DHT22;40342;52.998;5.862;2022-10-30T17:18:57;16.50;99.90
54431;DHT22;40342;52.998;5.862;2022-10-30T17:21:27;16.40;99.90
54431;DHT22;40342;52.998;5.862;2022-10-30T17:23:57;16.50;99.90
54431;DHT22;40342;52.998;5.862;2022-10-30T17:26:24;16.40;99.90
54431;DHT22;40342;52.998;5.862;2022-10-30T17:28:51;16.40;99.90
54431;DHT22;40342;52.998;5.862;2022-10-30T17:31:24;16.40;99.90
54431;DHT22;40342;52.998;5.862;2022-10-30T17:36:37;16.40;99.90
54431;DHT22;40342;52.998;5.862;2022-10-30T17:39:03;16.30;99.90
54431;DHT22;40342;52.998;5.862;2022-10-30T17:41:29;16.30;99.90
54431;DHT22;40342;52.998;5.862;2022-10-30T17:43:55;16.30;99.90
54431;DHT22;40342;52.998;5.862;2022-10-30T17:46:22;16.30;99.90
54431;DHT22;40342;52.998;5.862;2022-10-30T17:48:48;16.20;99.90
54431;DHT22;40342;52.998;5.862;2022-10-30T17:51:15;16.20;99.90
54431;DHT22;40342;52.998;5.862;2022-10-30T17:53:42;16.20;99.90